Latest Weather Observations for Ballarat

IDV60801

Issued at 7:35 am EST Sunday 21 September 2014 (issued every 30 minutes, with the page automatically refreshed every 10 minutes)

About weather observations | Map of weather stations | Latest weather observations for VIC | Other Formats
Station Details ID: 089002 Name: BALLARAT AERODROME Lat: -37.51 Lon: 143.79 Height: 435.2 m
Data from the previous 72 hours. | See also: Recent months at Ballarat
Date/Time
EST
Temp
°C
App
Temp
°C
Dew
Point
Rel
Hum
%
Delta-T
°C
Wind Press
QNH
hPa
Press
MSL
hPa
Rain
since 9 am
mm
Dir
 
Spd
km/h
Gust
km/h
Spd
kts
Gust
kts
21/07:30am 7.1 3.2 5.4 89 0.8 SSE 15 20 8 11 1030.3 1030.7 0.0
21/07:00am 5.3 2.0 4.7 96 0.3 S 11 15 6 8 1029.8 1030.3 0.0
21/06:30am 4.7 0.6 4.3 97 0.2 S 15 20 8 11 1029.6 1030.1 0.0
21/06:00am 4.3 0.5 4.0 98 0.1 SSE 13 17 7 9 1029.2 1029.7 0.0
21/05:30am 4.0 0.2 3.9 99 0.0 S 13 17 7 9 1029.3 1029.8 0.0
21/05:00am 4.0 0.2 3.7 98 0.1 S 13 15 7 8 1029.3 1029.8 0.0
21/04:30am 4.7 1.0 4.4 98 0.1 S 13 17 7 9 1029.1 1029.5 0.0
21/04:00am 4.8 1.5 4.5 98 0.1 SSE 11 15 6 8 1028.7 1029.1 0.0
21/03:30am 5.7 2.2 5.4 98 0.1 SSE 13 15 7 8 1028.8 1029.2 0.0
21/03:00am 6.4 2.3 6.1 98 0.1 S 17 22 9 12 1029.3 1029.8 0.0
21/02:30am 6.0 1.8 5.9 99 0.0 SSE 17 24 9 13 1029.5 1030.0 0.0
21/02:00am 4.3 0.9 4.2 99 0.0 SSE 11 17 6 9 1029.2 1029.7 0.0
21/01:31am 3.6 0.5 3.5 99 0.0 SSE 9 13 5 7 1029.2 1029.7 0.0
21/01:30am 3.5 0.4 3.4 99 0.0 SSE 9 13 5 7 1029.2 1029.7 0.0
21/01:08am 3.6 -0.3 3.5 99 0.0 S 13 15 7 8 1029.5 1030.0 0.0
21/01:00am 3.9 0.1 3.8 99 0.0 S 13 15 7 8 1029.6 1030.1 0.0
21/12:53am 3.8 0.0 3.7 99 0.0 S 13 15 7 8 1029.7 1030.2 0.0
21/12:49am 3.6 -0.3 3.5 99 0.0 S 13 15 7 8 1029.7 1030.2 0.0
21/12:33am 3.7 0.2 3.6 99 0.0 S 11 15 6 8 1029.7 1030.2 0.0
21/12:30am 4.1 1.1 4.0 99 0.0 S 9 13 5 7 1029.7 1030.2 0.0
21/12:19am 5.2 1.6 5.1 99 0.0 SSE 13 20 7 11 1029.6 1030.1 0.0
21/12:18am 5.5 1.6 5.4 99 0.0 SSE 15 20 8 11 1029.6 1030.1 0.0
21/12:00am 5.3 2.1 5.2 99 0.0 SSE 11 17 6 9 1029.4 1029.9 0.0
 
Date/Time
EST
Temp
°C
App
Temp
°C
Dew
Point
Rel
Hum
%
Delta-T
°C
Wind Press
QNH
hPa
Press
MSL
hPa
Rain
since 9 am
mm
Dir
 
Spd
km/h
Gust
km/h
Spd
kts
Gust
kts
20/11:41pm 4.7 1.8 4.6 99 0.0 S 9 11 5 6 1029.5 1030.0 0.0
20/11:30pm 5.0 2.5 4.9 99 0.0 S 7 9 4 5 1029.4 1029.9 0.0
20/11:00pm 5.1 1.8 4.8 98 0.1 SE 11 17 6 9 1029.3 1029.8 0.0
20/10:30pm 5.8 2.3 5.5 98 0.1 SSE 13 19 7 10 1029.4 1029.9 0.0
20/10:00pm 6.3 2.5 6.0 98 0.1 SSE 15 19 8 10 1029.5 1030.0 0.0
20/09:30pm 6.4 3.0 6.0 97 0.2 SSE 13 19 7 10 1029.6 1030.1 0.0
20/09:00pm 7.2 3.2 6.6 96 0.3 SSE 17 22 9 12 1029.5 1030.0 0.0
20/08:30pm 7.0 3.2 5.9 93 0.5 S 15 22 8 12 1029.7 1030.2 0.0
20/08:00pm 7.8 4.1 6.3 90 0.7 SSE 15 19 8 10 1029.5 1030.0 0.0
20/07:30pm 8.2 4.3 5.5 83 1.2 SSE 15 20 8 11 1029.2 1029.7 0.0
20/07:00pm 9.1 4.3 5.7 79 1.6 SSE 20 28 11 15 1028.8 1029.2 0.0
20/06:30pm 9.8 5.2 5.8 76 1.9 SSE 19 22 10 12 1028.6 1029.0 0.0
20/06:00pm 10.2 5.8 4.8 69 2.5 SSE 17 22 9 12 1028.2 1028.6 0.0
20/05:30pm 11.1 6.2 4.1 62 3.2 S 19 22 10 12 1027.9 1028.3 0.0
20/05:00pm 12.0 6.0 3.5 56 3.8 S 24 30 13 16 1027.4 1027.9 0.0
20/04:30pm 12.3 6.8 3.8 56 3.9 S 22 32 12 17 1027.3 1027.8 0.0
20/04:00pm 12.4 6.5 4.1 57 3.8 S 24 35 13 19 1027.1 1027.5 0.0
20/03:30pm 13.2 7.5 4.9 57 3.9 SSE 24 30 13 16 1026.8 1027.2 0.0
20/03:00pm 12.9 8.0 4.1 55 4.1 SSW 19 28 10 15 1026.7 1027.1 0.0
20/02:30pm 13.0 8.0 4.4 56 4.0 S 20 32 11 17 1026.6 1027.0 0.0
20/02:00pm 13.0 8.3 5.2 59 3.7 S 19 24 10 13 1026.5 1026.9 0.0
20/01:30pm 13.1 8.3 5.5 60 3.6 S 20 28 11 15 1026.7 1027.1 0.0
20/01:00pm 12.5 7.7 4.5 58 3.7 S 19 26 10 14 1026.9 1027.3 0.0
20/12:30pm 12.4 7.0 4.4 58 3.7 S 22 30 12 16 1027.1 1027.5 0.0
20/12:00pm 12.1 7.2 5.0 62 3.3 S 20 30 11 16 1027.4 1027.9 0.0
20/11:30am 11.4 5.8 3.4 58 3.6 S 22 41 12 22 1027.5 1028.0 0.0
20/11:00am 11.4 5.9 4.2 61 3.3 S 22 30 12 16 1027.9 1028.3 0.0
20/10:30am 10.7 4.8 4.0 63 3.1 S 24 33 13 18 1028.0 1028.4 0.0
20/10:00am 10.3 4.3 3.3 62 3.1 S 24 35 13 19 1028.1 1028.5 0.0
20/09:30am 10.0 4.0 3.3 63 3.0 S 24 35 13 19 1028.0 1028.4 0.0
20/09:00am 8.8 2.4 3.0 67 2.5 SSE 26 35 14 19 1027.7 1028.2 0.0
20/08:30am 8.7 3.8 4.9 77 1.7 S 20 28 11 15 1027.4 1027.9 0.0
20/08:00am 7.9 3.5 6.4 90 0.7 S 19 28 10 15 1027.2 1027.7 0.0
20/07:30am 7.0 2.9 6.4 96 0.3 S 17 20 9 11 1026.9 1027.3 0.0
20/07:00am 6.6 2.5 6.3 98 0.1 S 17 20 9 11 1026.6 1027.0 0.0
20/06:30am 6.2 2.4 5.9 98 0.1 S 15 19 8 10 1026.3 1026.7 0.0
20/06:00am 6.3 3.0 6.2 99 0.0 S 13 19 7 10 1026.0 1026.4 0.0
20/05:30am 6.4 3.0 6.1 98 0.1 S 13 17 7 9 1025.3 1025.8 0.0
20/05:00am 6.6 2.4 5.9 95 0.3 S 17 22 9 12 1025.1 1025.5 0.0
20/04:30am 6.4 3.0 6.1 98 0.1 S 13 19 7 10 1024.8 1025.2 0.0
20/04:00am 6.3 3.0 6.2 99 0.0 S 13 17 7 9 1024.9 1025.3 0.0
20/03:30am 6.2 3.2 6.1 99 0.0 S 11 17 6 9 1025.1 1025.5 0.0
20/03:00am 6.2 3.2 6.1 99 0.0 S 11 15 6 8 1025.0 1025.4 0.0
20/02:30am 5.9 3.2 5.8 99 0.0 S 9 11 5 6 1025.0 1025.4 0.0
20/02:00am 5.9 2.9 5.9 100 0.0 S 11 13 6 7 1025.2 1025.7 0.0
20/01:30am 5.8 3.1 5.8 100 0.0 S 9 13 5 7 1025.3 1025.8 0.0
20/01:28am 5.7 3.0 5.7 100 0.0 S 9 13 5 7 1025.5 1025.9 0.0
20/01:00am 5.3 2.1 5.2 99 0.0 S 11 13 6 7 1025.6 1026.0 0.0
20/12:59am 5.2 2.0 5.1 99 0.0 S 11 13 6 7 1025.6 1026.0 0.0
20/12:39am 3.9 0.8 3.8 99 0.0 S 9 11 5 6 1025.6 1026.0 0.0
20/12:30am 3.4 0.2 3.3 99 0.0 SSE 9 9 5 5 1025.3 1025.8 0.0
20/12:00am 4.4 1.1 4.3 99 0.0 S 11 13 6 7 1025.2 1025.7 0.0
 
Date/Time
EST
Temp
°C
App
Temp
°C
Dew
Point
Rel
Hum
%
Delta-T
°C
Wind Press
QNH
hPa
Press
MSL
hPa
Rain
since 9 am
mm
Dir
 
Spd
km/h
Gust
km/h
Spd
kts
Gust
kts
19/11:30pm 4.5 1.2 4.4 99 0.0 S 11 13 6 7 1025.5 1025.9 0.0
19/11:00pm 4.4 1.1 4.3 99 0.0 SSE 11 13 6 7 1025.6 1026.0 0.0
19/10:33pm 5.5 2.0 5.4 99 0.0 S 13 15 7 8 1025.8 1026.2 0.0
19/10:30pm 5.7 2.2 5.6 99 0.0 S 13 15 7 8 1025.7 1026.1 0.0
19/10:11pm 6.4 3.1 6.3 99 0.0 SSE 13 17 7 9 1025.7 1026.1 0.0
19/10:00pm 6.0 2.2 5.9 99 0.0 SSE 15 19 8 10 1025.7 1026.1 0.0
19/09:52pm 6.3 2.2 6.2 99 0.0 SSE 17 20 9 11 1025.7 1026.1 0.0
19/09:36pm 5.7 2.2 5.6 99 0.0 S 13 15 7 8 1025.8 1026.2 0.0
19/09:30pm 5.7 2.2 5.4 98 0.1 S 13 15 7 8 1025.9 1026.3 0.0
19/09:11pm 6.1 3.4 5.8 98 0.1 S 9 13 5 7 1025.9 1026.3 0.0
19/09:00pm 6.4 3.4 6.1 98 0.1 S 11 15 6 8 1025.9 1026.3 0.0
19/08:51pm 6.6 3.3 6.3 98 0.1 S 13 17 7 9 1025.8 1026.2 0.0
19/08:48pm 6.7 3.4 6.4 98 0.1 SSE 13 17 7 9 1025.8 1026.2 0.0
19/08:31pm 6.2 3.6 5.9 98 0.1 S 9 11 5 6 1025.8 1026.2 0.0
19/08:30pm 6.2 3.6 5.9 98 0.1 S 9 11 5 6 1025.8 1026.2 0.0
19/08:00pm 6.8 3.5 6.4 97 0.2 S 13 15 7 8 1025.5 1025.9 0.0
19/07:30pm 7.0 3.6 5.8 92 0.6 S 13 15 7 8 1025.1 1025.5 0.0
19/07:00pm 8.0 4.2 5.6 85 1.1 S 15 19 8 10 1024.8 1025.2 0.0
19/06:30pm 8.8 5.3 5.5 80 1.5 S 13 19 7 10 1024.5 1024.9 0.0
19/06:00pm 10.0 5.7 5.2 72 2.2 S 17 24 9 13 1024.2 1024.6 0.0
19/05:30pm 10.5 6.7 5.7 72 2.3 S 15 24 8 13 1024.2 1024.6 0.0
19/05:00pm 10.6 6.7 5.4 70 2.4 SSW 15 20 8 11 1024.0 1024.4 0.0
19/04:30pm 11.3 6.4 5.0 65 2.9 S 20 24 11 13 1023.8 1024.2 0.0
19/04:00pm 10.9 6.0 5.0 67 2.7 SSW 20 30 11 16 1023.7 1024.1 0.0
19/03:30pm 11.9 7.2 3.4 56 3.9 SW 17 26 9 14 1023.6 1024.0 0.0
19/03:00pm 12.7 8.6 4.2 56 3.9 SW 15 22 8 12 1023.7 1024.1 0.0
19/02:30pm 11.4 6.4 3.4 58 3.6 SSW 19 28 10 15 1023.8 1024.2 0.0
19/02:00pm 11.5 6.7 4.5 62 3.2 SSW 19 32 10 17 1023.7 1024.1 0.0
19/01:30pm 11.5 6.7 4.5 62 3.2 S 19 28 10 15 1023.9 1024.3 0.0
19/01:00pm 10.9 6.7 3.7 61 3.2 SW 15 22 8 12 1024.3 1024.7 0.0
19/12:30pm 10.3 6.2 4.5 67 2.7 SW 15 20 8 11 1024.6 1025.0 0.0
19/12:00pm 10.2 5.8 4.8 69 2.5 SSW 17 24 9 13 1024.8 1025.2 0.0
19/11:30am 10.0 5.5 4.4 68 2.6 SW 17 20 9 11 1024.8 1025.2 0.0
19/11:00am 9.9 5.9 4.7 70 2.4 SW 15 20 8 11 1025.0 1025.4 0.0
19/10:30am 10.1 5.3 4.7 69 2.5 S 19 26 10 14 1025.2 1025.7 0.0
19/10:00am 9.0 4.8 5.7 80 1.5 SSW 17 24 9 13 1025.3 1025.8 0.0
19/09:30am 8.7 4.2 6.2 84 1.2 SSW 19 32 10 17 1025.5 1025.9 0.0
19/09:00am 8.0 5.1 6.5 90 0.7 SW 11 19 6 10 1025.5 1025.9 0.0
19/08:30am 6.8 3.5 6.5 98 0.1 SSW 13 19 7 10 1025.3 1025.8 0.0
19/08:00am 6.2 3.2 5.9 98 0.1 SW 11 17 6 9 1025.1 1025.5 0.0
19/07:30am 4.3 1.9 4.2 99 0.0 SSW 6 9 3 5 1024.9 1025.3 0.0
19/07:00am 3.1 0.4 2.8 98 0.1 S 6 7 3 4 1025.0 1025.4 0.0
19/06:30am 3.5 0.3 3.2 98 0.1 WSW 9 11 5 6 1024.6 1025.0 0.0
19/06:00am 4.2 1.5 3.9 98 0.1 SW 7 9 4 5 1024.3 1024.7 0.0
19/05:30am 4.1 1.0 3.8 98 0.1 SW 9 11 5 6 1024.1 1024.5 0.0
19/05:00am 4.6 1.6 4.3 98 0.1 SW 9 13 5 7 1023.7 1024.1 0.0
19/04:30am 4.2 1.5 3.9 98 0.1 SSW 7 11 4 6 1023.7 1024.1 0.0
19/04:00am 4.4 1.3 3.4 93 0.4 SSW 9 13 5 7 1023.6 1024.0 0.0
19/03:30am 3.8 0.6 2.9 94 0.4 S 9 11 5 6 1023.5 1023.9 0.0
19/03:00am 5.1 1.7 3.8 91 0.6 S 11 13 6 7 1023.6 1024.0 0.0
19/02:30am 4.8 2.3 4.7 99 0.0 SSW 7 9 4 5 1023.9 1024.3 0.0
19/02:00am 2.6 -0.3 2.5 99 0.0 S 7 11 4 6 1024.1 1024.5 0.0
19/01:30am 1.1 -1.1 1.0 99 0.0 SE 2 9 1 5 1024.4 1024.8 0.0
19/01:11am 0.9 -1.7 0.8 99 0.0 E 4 7 2 4 1024.5 1024.9 0.0
19/01:00am 0.7 -2.3 0.6 99 0.0 SE 6 9 3 5 1024.6 1025.0 0.0
19/12:30am 0.6 -1.7 0.5 99 0.0 SE 2 6 1 3 1024.7 1025.1 0.0
19/12:19am 0.9 -2.1 0.8 99 0.0 SE 6 7 3 4 1024.7 1025.1 0.0
19/12:00am 1.4 -1.5 1.3 99 0.0 SSW 6 7 3 4 1024.8 1025.2 0.0
 
Date/Time
EST
Temp
°C
App
Temp
°C
Dew
Point
Rel
Hum
%
Delta-T
°C
Wind Press
QNH
hPa
Press
MSL
hPa
Rain
since 9 am
mm
Dir
 
Spd
km/h
Gust
km/h
Spd
kts
Gust
kts
18/11:30pm 2.0 -1.0 1.9 99 0.0 S 7 7 4 4 1025.0 1025.4 0.0
18/11:00pm 2.3 -0.7 2.0 98 0.1 S 7 9 4 5 1025.1 1025.5 0.0
18/10:30pm 2.7 -0.6 2.4 98 0.1 S 9 13 5 7 1025.1 1025.5 0.0
18/10:00pm 4.3 1.3 4.0 98 0.1 SSW 9 13 5 7 1025.1 1025.5 0.0
18/09:30pm 4.6 1.2 3.9 95 0.3 S 11 15 6 8 1025.0 1025.4 0.0
18/09:00pm 5.4 2.5 4.4 93 0.4 SSW 9 13 5 7 1025.0 1025.4 0.0
18/08:30pm 5.3 1.4 3.5 88 0.8 SSW 13 17 7 9 1024.6 1025.0 0.0
18/08:00pm 5.6 2.0 2.8 82 1.2 SSW 11 15 6 8 1024.6 1025.0 0.0
18/07:30pm 6.1 2.5 2.9 80 1.4 SSW 11 15 6 8 1024.4 1024.8 0.0
18/07:00pm 6.5 2.5 2.8 77 1.6 SSW 13 20 7 11 1024.2 1024.6 0.0
18/06:30pm 7.1 3.0 2.2 71 2.1 SSW 13 19 7 10 1024.1 1024.5 0.0
18/06:00pm 8.1 3.3 2.6 68 2.4 S 17 22 9 12 1023.7 1024.1 0.0
18/05:30pm 8.5 3.6 2.1 64 2.7 SSW 17 22 9 12 1023.4 1023.8 0.0
18/05:00pm 9.6 4.3 2.9 63 2.9 S 20 30 11 16 1023.1 1023.4 0.0
18/04:30pm 10.5 5.2 2.8 59 3.4 S 20 28 11 15 1022.6 1023.0 0.0
18/04:00pm 11.0 5.7 3.1 58 3.5 SSW 20 33 11 18 1022.5 1022.9 0.0
18/03:30pm 11.4 5.4 3.4 58 3.6 SW 24 35 13 19 1022.4 1022.8 0.0
18/03:00pm 11.6 5.8 4.3 61 3.4 WSW 24 33 13 18 1022.3 1022.7 0.0
18/02:30pm 10.5 6.4 4.4 66 2.8 SSW 15 22 8 12 1022.4 1022.8 0.0
18/02:00pm 8.7 1.9 5.1 78 1.6 SSW 30 44 16 24 1022.5 1022.9 0.0
18/01:30pm 11.2 6.1 4.0 61 3.3 SW 20 30 11 16 1022.5 1022.9 0.0
18/01:00pm 10.3 4.7 3.6 63 3.0 SSW 22 32 12 17 1022.7 1023.1 0.0
18/12:30pm 8.1 2.7 4.3 77 1.7 SSW 22 32 12 17 1023.0 1023.3 0.0
18/12:00pm 10.2 5.2 4.4 67 2.6 SW 20 28 11 15 1022.8 1023.2 0.0
18/11:30am 9.5 3.9 3.7 67 2.6 SSW 22 32 12 17 1023.0 1023.3 0.0
18/11:00am 8.9 3.9 3.5 69 2.4 SSW 19 28 10 15 1023.2 1023.5 0.0
18/10:30am 8.2 3.0 3.3 71 2.1 SSW 20 28 11 15 1023.2 1023.5 0.0
18/10:00am 8.7 4.3 4.7 76 1.8 SSW 17 24 9 13 1023.1 1023.4 0.0
18/09:30am 7.9 2.8 3.9 76 1.8 SSW 20 32 11 17 1023.0 1023.3 0.0
18/09:17am 7.6 2.6 4.6 81 1.3 SSW 20 28 11 15 1022.8 1023.2 0.0
18/09:00am 7.5 3.4 6.1 91 0.6 SSW 17 24 9 13 1022.7 1023.1 2.0
18/08:30am 7.1 3.5 6.8 98 0.1 SSW 15 22 8 12 1022.6 1023.0 2.0
18/08:00am 5.3 1.7 5.2 99 0.0 SW 13 20 7 11 1022.4 1022.8 2.0

Other Formats:

Comma delimited format used in spreadsheet applications
http://www.bom.gov.au/fwo/IDV60801/IDV60801.94852.axf

JavaScript Object Notation format (JSON) in row-major order
http://www.bom.gov.au/fwo/IDV60801/IDV60801.94852.json